Time;durP1;ratioP1;P1;durP2;ratioP2;P2;SDS_P1;SDS_P2;PMS_P1;PMS_P2;Temp;Humidity;BMP_temperature;BMP_pressure;BME280_temperature;BME280_humidity;BME280_pressure;Samples;Min_cycle;Max_cycle;Signal;HPM_P1;HPM_P2
2022/06/26 00:00:56;;;;;;;13.00;7.15;;;21.40;83.30;;;;;;1855939;76;21126;-61
2022/06/26 00:03:25;;;;;;;10.13;5.37;;;21.20;83.80;;;;;;1856068;77;21435;-61
2022/06/26 00:05:55;;;;;;;7.30;5.92;;;21.10;83.90;;;;;;1856049;77;21027;-61
2022/06/26 00:08:25;;;;;;;15.78;6.42;;;21.10;84.90;;;;;;1855969;76;21035;-61
2022/06/26 00:10:54;;;;;;;10.35;6.45;;;21.00;84.40;;;;;;1856002;76;21032;-61
2022/06/26 00:13:24;;;;;;;14.05;6.75;;;21.10;84.50;;;;;;1855880;76;21044;-61
2022/06/26 00:15:54;;;;;;;17.45;9.85;;;21.00;84.60;;;;;;1856047;76;21130;-61
2022/06/26 00:18:23;;;;;;;15.88;9.70;;;21.00;84.80;;;;;;1856049;76;21030;-61
2022/06/26 00:20:52;;;;;;;23.52;9.58;;;21.00;85.00;;;;;;1855949;76;21012;-61
2022/06/26 00:23:21;;;;;;;11.12;7.95;;;21.00;84.80;;;;;;1855923;77;21032;-61
2022/06/26 00:25:50;;;;;;;10.32;6.83;;;21.00;85.00;;;;;;1856056;76;21102;-61
2022/06/26 00:28:20;;;;;;;11.95;7.17;;;21.00;85.10;;;;;;1856009;76;21028;-60
2022/06/26 00:30:49;;;;;;;12.70;6.97;;;21.10;85.20;;;;;;1855908;76;21502;-61
2022/06/26 00:33:19;;;;;;;9.43;6.30;;;21.10;85.10;;;;;;1855914;77;21036;-61
2022/06/26 00:35:48;;;;;;;10.32;7.15;;;21.10;85.10;;;;;;1855926;76;21097;-61
2022/06/26 00:38:18;;;;;;;11.80;6.30;;;21.20;85.00;;;;;;1855899;77;21060;-61
2022/06/26 00:40:47;;;;;;;14.65;7.22;;;21.10;84.80;;;;;;1855930;76;21045;-61
2022/06/26 00:43:17;;;;;;;10.03;6.40;;;21.10;84.90;;;;;;1855977;77;21067;-61
2022/06/26 00:45:46;;;;;;;8.13;6.40;;;21.10;85.10;;;;;;1855922;76;21157;-61
2022/06/26 00:48:15;;;;;;;9.28;5.95;;;21.10;85.40;;;;;;1855909;76;21502;-61
2022/06/26 00:50:45;;;;;;;6.22;5.20;;;21.20;85.50;;;;;;1855880;76;21023;-61
2022/06/26 00:53:14;;;;;;;7.70;5.92;;;21.10;85.40;;;;;;1856007;76;21094;-61
2022/06/26 00:55:44;;;;;;;8.00;5.83;;;21.20;85.40;;;;;;1855975;77;21043;-61
2022/06/26 00:58:14;;;;;;;7.90;5.92;;;21.10;85.30;;;;;;1855934;76;21040;-61
2022/06/26 01:00:43;;;;;;;11.00;5.80;;;21.10;85.40;;;;;;1855901;77;21040;-61
2022/06/26 01:03:13;;;;;;;9.48;6.22;;;21.00;85.50;;;;;;1855990;76;21032;-61
2022/06/26 01:05:42;;;;;;;10.93;5.95;;;21.00;85.70;;;;;;1855982;77;21024;-61
2022/06/26 01:08:12;;;;;;;8.98;6.10;;;21.00;85.80;;;;;;1855977;76;21008;-61
2022/06/26 01:10:42;;;;;;;10.48;6.85;;;20.90;85.80;;;;;;1855879;77;21020;-61
2022/06/26 01:13:11;;;;;;;7.45;6.12;;;20.90;85.70;;;;;;1855988;76;21098;-61
2022/06/26 01:15:41;;;;;;;9.13;6.08;;;20.80;85.80;;;;;;1856105;77;21111;-61
2022/06/26 01:18:11;;;;;;;8.75;6.72;;;20.70;85.90;;;;;;1856112;77;21040;-61
2022/06/26 01:20:41;;;;;;;8.88;6.40;;;20.70;86.00;;;;;;1855946;76;21122;-61
2022/06/26 01:23:11;;;;;;;11.12;7.08;;;20.60;86.00;;;;;;1856045;77;21102;-61
2022/06/26 01:25:45;;;;;;;12.05;7.22;;;20.60;86.20;;;;;;1855976;76;21036;-61
2022/06/26 01:28:16;;;;;;;9.20;7.25;;;20.50;86.10;;;;;;1855946;77;21036;-61
2022/06/26 01:30:46;;;;;;;15.00;7.42;;;20.60;86.10;;;;;;1860277;76;21107;-61
2022/06/26 01:33:17;;;;;;;10.58;7.37;;;20.50;86.10;;;;;;1861886;77;21140;-61
2022/06/26 01:35:46;;;;;;;12.82;7.10;;;20.50;86.30;;;;;;1861889;76;21086;-61
2022/06/26 01:38:20;;;;;;;9.20;7.37;;;20.50;86.20;;;;;;1861926;77;21146;-61
2022/06/26 01:40:51;;;;;;;8.95;7.55;;;20.50;86.50;;;;;;1861835;77;21117;-61
2022/06/26 01:43:43;;;;;;;9.53;7.08;;;20.50;86.50;;;;;;1861976;76;21031;-61
2022/06/26 01:46:14;;;;;;;8.53;6.87;;;20.50;86.50;;;;;;1984508;72;21050;-61
2022/06/26 01:48:43;;;;;;;8.58;6.83;;;20.60;86.70;;;;;;1985373;71;20986;-61
2022/06/26 01:51:14;;;;;;;12.60;7.42;;;20.70;86.60;;;;;;1985351;71;21034;-61
2022/06/26 01:53:45;;;;;;;8.55;7.08;;;20.60;86.20;;;;;;1985460;71;21084;-61
2022/06/26 01:56:15;;;;;;;9.80;7.15;;;20.60;86.30;;;;;;1985389;71;21061;-61
2022/06/26 01:58:46;;;;;;;9.08;6.72;;;20.50;86.30;;;;;;1984743;71;21058;-61
2022/06/26 02:01:20;;;;;;;7.83;6.97;;;20.50;86.60;;;;;;1976052;72;21152;-61
2022/06/26 02:03:51;;;;;;;9.80;6.53;;;20.50;86.70;;;;;;1985512;72;21090;-61
2022/06/26 02:06:21;;;;;;;8.50;6.58;;;20.40;86.80;;;;;;1985443;72;21010;-61
2022/06/26 02:08:50;;;;;;;8.00;6.60;;;20.40;86.80;;;;;;1985412;71;21018;-61
2022/06/26 02:14:09;;;;;;;9.20;6.47;;;20.40;86.60;;;;;;1985494;72;21022;-61
2022/06/26 02:16:46;;;;;;;8.78;6.72;;;20.30;86.60;;;;;;1984809;71;21117;-61
2022/06/26 02:19:17;;;;;;;6.62;5.65;;;20.30;86.80;;;;;;1985423;71;21017;-61
2022/06/26 02:21:46;;;;;;;6.70;5.50;;;20.20;86.70;;;;;;1985346;72;21034;-61
2022/06/26 02:24:15;;;;;;;12.07;6.08;;;20.20;86.80;;;;;;1985341;71;20990;-61
2022/06/26 02:26:45;;;;;;;10.72;6.47;;;20.10;86.80;;;;;;1985294;71;21080;-61
2022/06/26 02:29:16;;;;;;;15.08;6.62;;;20.10;86.90;;;;;;1985539;71;21077;-61
2022/06/26 02:31:45;;;;;;;10.95;6.80;;;20.10;86.90;;;;;;1985408;71;20986;-61
2022/06/26 02:34:15;;;;;;;5.85;4.65;;;20.10;86.90;;;;;;1985291;72;21018;-61
2022/06/26 02:36:45;;;;;;;5.05;4.50;;;20.20;86.90;;;;;;1985334;71;21014;-61
2022/06/26 02:39:15;;;;;;;6.87;5.37;;;20.10;86.80;;;;;;1985535;72;21072;-61
2022/06/26 02:41:44;;;;;;;6.58;4.47;;;20.10;86.50;;;;;;1985510;72;21075;-62
2022/06/26 02:44:15;;;;;;;4.72;4.10;;;20.10;86.50;;;;;;1985425;71;21018;-61
2022/06/26 02:46:44;;;;;;;5.05;4.03;;;20.10;86.60;;;;;;1985393;71;21042;-62
2022/06/26 02:49:14;;;;;;;5.47;4.90;;;20.10;86.60;;;;;;1985526;71;21042;-61
2022/06/26 02:51:43;;;;;;;7.30;4.83;;;20.10;86.50;;;;;;1985235;71;21080;-62
2022/06/26 02:54:13;;;;;;;6.00;4.12;;;20.10;86.60;;;;;;1985242;71;21495;-61
2022/06/26 02:56:43;;;;;;;4.62;4.22;;;20.10;86.70;;;;;;1985283;71;21020;-61
2022/06/26 02:59:13;;;;;;;7.03;4.37;;;20.10;86.80;;;;;;1985292;72;21069;-61
2022/06/26 03:01:43;;;;;;;5.17;4.40;;;20.10;86.70;;;;;;1985217;71;21015;-61
2022/06/26 03:04:14;;;;;;;8.13;5.37;;;20.10;86.60;;;;;;1980953;72;21078;-61
2022/06/26 03:06:43;;;;;;;4.60;4.20;;;20.10;86.60;;;;;;1985577;71;20994;-61
2022/06/26 03:09:12;;;;;;;8.65;4.95;;;20.10;86.60;;;;;;1985576;71;21060;-61
2022/06/26 03:11:41;;;;;;;4.55;4.08;;;20.20;86.60;;;;;;1985453;71;21080;-62
2022/06/26 03:14:11;;;;;;;4.30;3.72;;;20.20;86.60;;;;;;1985380;71;21042;-63
2022/06/26 03:16:41;;;;;;;5.92;4.05;;;20.30;86.80;;;;;;1985532;72;21010;-63
2022/06/26 03:19:10;;;;;;;4.90;3.85;;;20.30;86.80;;;;;;1985513;71;21018;-62
2022/06/26 03:21:40;;;;;;;5.10;4.35;;;20.40;86.70;;;;;;1985388;71;21076;-62
2022/06/26 03:24:09;;;;;;;4.50;4.10;;;20.40;86.70;;;;;;1985451;71;21076;-61
2022/06/26 03:26:40;;;;;;;5.25;4.67;;;20.50;86.90;;;;;;1985344;71;21455;-61
2022/06/26 03:29:11;;;;;;;5.75;4.00;;;20.60;87.00;;;;;;1985501;71;21095;-61
2022/06/26 03:31:40;;;;;;;6.87;4.95;;;20.60;86.90;;;;;;1985356;72;21006;-61
2022/06/26 03:34:11;;;;;;;5.90;4.47;;;20.70;86.60;;;;;;1985383;72;21035;-61
2022/06/26 03:36:42;;;;;;;4.65;4.25;;;20.80;86.50;;;;;;1985251;71;21524;-61
2022/06/26 03:39:12;;;;;;;4.95;4.30;;;20.80;86.60;;;;;;1985391;71;21006;-61
2022/06/26 03:41:57;;;;;;;10.05;4.80;;;20.90;86.70;;;;;;1985395;71;21007;-61
2022/06/26 03:44:12;;;;;;;6.60;4.12;;;21.00;86.60;;;;;;1981846;72;21539;-61
2022/06/26 03:46:43;;;;;;;4.92;4.42;;;21.00;86.30;;;;;;1985331;71;21139;-61
2022/06/26 03:49:12;;;;;;;4.78;4.03;;;21.10;86.20;;;;;;1985487;71;21022;-61
2022/06/26 03:51:41;;;;;;;5.37;3.72;;;21.10;85.90;;;;;;1985304;72;21006;-61
2022/06/26 03:54:11;;;;;;;4.28;3.77;;;21.20;85.70;;;;;;1985392;71;21068;-61
2022/06/26 03:56:40;;;;;;;4.83;3.90;;;21.20;85.80;;;;;;1985429;71;20979;-61
2022/06/26 03:59:11;;;;;;;7.72;4.20;;;21.30;85.90;;;;;;1950488;72;21038;-61
2022/06/26 04:01:40;;;;;;;4.90;3.87;;;21.30;85.80;;;;;;1985510;72;20986;-60
2022/06/26 04:04:11;;;;;;;4.45;3.65;;;21.30;85.70;;;;;;1985361;72;21022;-61
2022/06/26 04:06:41;;;;;;;4.85;3.85;;;21.30;85.30;;;;;;1985382;72;21010;-61
2022/06/26 04:09:12;;;;;;;5.12;3.55;;;21.20;85.40;;;;;;1981834;71;21124;-61
2022/06/26 04:11:41;;;;;;;4.53;3.65;;;21.10;85.70;;;;;;1985364;71;21014;-61
2022/06/26 04:14:11;;;;;;;4.12;3.72;;;21.10;85.90;;;;;;1985331;72;21006;-61
2022/06/26 04:16:40;;;;;;;4.72;4.17;;;21.10;85.90;;;;;;1985262;71;21074;-61
2022/06/26 04:19:10;;;;;;;4.28;3.80;;;21.10;85.50;;;;;;1985441;71;21076;-60
2022/06/26 04:21:40;;;;;;;5.42;3.70;;;21.10;85.30;;;;;;1985208;71;21002;-61
2022/06/26 04:24:12;;;;;;;4.10;3.80;;;21.10;84.80;;;;;;1985222;71;21140;-61
2022/06/26 04:26:41;;;;;;;5.03;3.83;;;21.10;85.00;;;;;;1985255;71;21072;-61
2022/06/26 04:29:11;;;;;;;7.22;3.95;;;21.00;85.10;;;;;;1985276;71;21010;-61
2022/06/26 04:31:41;;;;;;;4.83;3.62;;;21.00;85.30;;;;;;1985239;72;21115;-61
2022/06/26 04:34:11;;;;;;;5.12;3.65;;;21.00;85.40;;;;;;1985301;72;21014;-61
2022/06/26 04:36:40;;;;;;;6.83;4.03;;;21.10;85.50;;;;;;1985420;72;20987;-61
2022/06/26 04:39:11;;;;;;;4.85;3.85;;;21.10;85.40;;;;;;1983685;72;21051;-61
2022/06/26 04:41:42;;;;;;;4.85;3.25;;;21.20;85.30;;;;;;1985177;72;21035;-61
2022/06/26 04:44:13;;;;;;;4.90;3.70;;;21.30;85.20;;;;;;1985333;71;21084;-61
2022/06/26 04:46:43;;;;;;;14.50;4.17;;;21.30;85.00;;;;;;1985391;71;21018;-61
2022/06/26 04:49:13;;;;;;;4.30;3.27;;;21.30;84.90;;;;;;1985403;71;20991;-61
2022/06/26 04:51:43;;;;;;;5.25;3.70;;;21.40;85.00;;;;;;1985189;71;21002;-61
2022/06/26 04:54:26;;;;;;;6.20;3.90;;;21.40;84.70;;;;;;1984406;72;21058;-61
2022/06/26 04:56:55;;;;;;;6.58;3.80;;;21.40;84.70;;;;;;1985278;71;21084;-61
2022/06/26 04:59:25;;;;;;;4.53;3.87;;;21.40;85.00;;;;;;1985259;71;21030;-61
2022/06/26 05:01:55;;;;;;;7.78;4.08;;;21.40;84.80;;;;;;1984409;71;21054;-61
2022/06/26 05:04:42;;;;;;;5.30;4.55;;;21.40;84.70;;;;;;1981088;71;21066;-61
2022/06/26 05:07:29;;;;;;;6.83;4.62;;;21.40;84.90;;;;;;1985139;72;21121;-61
2022/06/26 05:09:58;;;;;;;8.40;4.30;;;21.40;84.80;;;;;;1985186;71;21053;-61
2022/06/26 05:12:29;;;;;;;5.87;4.45;;;21.40;84.80;;;;;;1985345;71;21018;-61
2022/06/26 05:15:13;;;;;;;5.25;4.42;;;21.50;84.90;;;;;;1984015;71;21173;-61
2022/06/26 05:17:44;;;;;;;7.95;4.47;;;21.40;85.00;;;;;;1984741;71;21106;-61
2022/06/26 05:20:15;;;;;;;6.25;5.45;;;21.40;85.00;;;;;;1984387;72;21066;-61
2022/06/26 05:22:44;;;;;;;5.30;4.80;;;21.50;84.90;;;;;;1985151;71;21054;-61
2022/06/26 05:25:15;;;;;;;5.83;5.15;;;21.50;84.80;;;;;;1984931;71;21050;-61
2022/06/26 05:27:58;;;;;;;6.92;5.50;;;21.50;84.40;;;;;;1985223;71;21088;-61
2022/06/26 05:30:26;;;;;;;5.42;4.72;;;21.40;84.80;;;;;;1959401;73;21515;-61
2022/06/26 05:32:57;;;;;;;6.10;4.12;;;21.40;84.70;;;;;;1960986;73;21021;-61
2022/06/26 05:35:27;;;;;;;6.83;4.05;;;21.40;84.50;;;;;;1962341;73;21045;-61
2022/06/26 05:37:57;;;;;;;6.83;3.70;;;21.30;84.10;;;;;;1962449;73;21103;-61
2022/06/26 05:40:28;;;;;;;6.90;4.17;;;21.20;84.20;;;;;;1962068;73;21029;-61
2022/06/26 05:42:59;;;;;;;9.55;4.70;;;21.20;84.60;;;;;;1962164;73;21124;-61
2022/06/26 05:45:29;;;;;;;8.33;5.83;;;21.20;84.80;;;;;;1962226;73;21069;-61
2022/06/26 05:48:01;;;;;;;4.72;4.22;;;21.20;85.20;;;;;;1957201;73;21120;-61
2022/06/26 05:50:48;;;;;;;5.10;4.50;;;21.10;85.40;;;;;;1962351;73;21460;-61
2022/06/26 05:53:37;;;;;;;5.85;4.30;;;21.20;85.70;;;;;;1960433;73;21062;-61
2022/06/26 05:56:08;;;;;;;6.00;4.67;;;21.20;85.60;;;;;;1957082;73;21049;-61
2022/06/26 05:58:40;;;;;;;7.35;4.58;;;21.20;85.70;;;;;;1958554;73;21072;-62
2022/06/26 06:01:13;;;;;;;8.53;4.53;;;21.30;86.10;;;;;;1960862;73;21077;-61
2022/06/26 06:03:44;;;;;;;6.03;4.60;;;21.30;86.00;;;;;;1962085;73;21041;-61
2022/06/26 06:06:14;;;;;;;6.10;4.00;;;21.30;85.90;;;;;;1962474;73;21119;-61
2022/06/26 06:08:43;;;;;;;7.67;5.15;;;21.30;85.70;;;;;;1962508;73;21083;-61
2022/06/26 06:11:13;;;;;;;5.12;4.15;;;21.30;85.90;;;;;;1962276;73;21012;-61
2022/06/26 06:13:43;;;;;;;6.10;4.40;;;21.40;85.80;;;;;;1962476;73;21095;-61
2022/06/26 06:16:13;;;;;;;6.40;4.50;;;21.30;85.70;;;;;;1962406;73;21014;-61
2022/06/26 06:18:42;;;;;;;7.47;4.70;;;21.30;85.90;;;;;;1962364;73;21092;-61
2022/06/26 06:21:12;;;;;;;6.83;4.55;;;21.30;86.10;;;;;;1962331;73;21010;-61
2022/06/26 06:23:44;;;;;;;8.73;4.72;;;21.30;86.00;;;;;;1962373;73;21026;-61
2022/06/26 06:26:15;;;;;;;6.22;4.60;;;21.40;86.00;;;;;;1962274;73;20994;-61
2022/06/26 06:28:45;;;;;;;5.83;4.58;;;21.40;86.00;;;;;;1962242;73;21017;-60
2022/06/26 06:31:14;;;;;;;7.95;4.70;;;21.40;85.90;;;;;;1962261;73;21030;-61
2022/06/26 06:33:45;;;;;;;6.08;5.00;;;21.40;85.90;;;;;;1962281;73;20997;-61
2022/06/26 06:36:14;;;;;;;6.37;4.17;;;21.40;85.70;;;;;;1962558;73;20998;-61
2022/06/26 06:38:44;;;;;;;10.58;5.15;;;21.40;85.70;;;;;;1962285;73;21111;-61
2022/06/26 06:41:13;;;;;;;7.90;4.35;;;21.50;85.80;;;;;;1962295;73;21464;-61
2022/06/26 06:43:46;;;;;;;6.45;5.42;;;21.50;85.80;;;;;;1959878;73;21020;-61
2022/06/26 06:46:29;;;;;;;12.80;5.20;;;21.50;85.70;;;;;;1962502;73;21050;-61
2022/06/26 06:49:00;;;;;;;6.78;4.58;;;21.60;85.60;;;;;;1956364;73;20998;-61
2022/06/26 06:51:51;;;;;;;9.28;5.62;;;21.50;85.70;;;;;;1962311;73;21083;-61
2022/06/26 06:54:24;;;;;;;10.00;5.08;;;21.60;86.00;;;;;;1905970;72;21081;-61
2022/06/26 06:56:54;;;;;;;6.03;4.20;;;21.60;85.90;;;;;;1930461;74;21013;-61
2022/06/26 06:59:23;;;;;;;5.10;4.58;;;21.70;85.90;;;;;;1930433;74;21165;-61
2022/06/26 07:01:53;;;;;;;8.68;4.37;;;21.80;85.80;;;;;;1930458;74;21018;-61
2022/06/26 07:04:22;;;;;;;7.12;4.83;;;21.80;85.60;;;;;;1930409;74;21075;-60
2022/06/26 07:06:52;;;;;;;6.62;4.10;;;21.90;85.40;;;;;;1930552;74;21446;-60
2022/06/26 07:09:22;;;;;;;4.80;3.87;;;21.90;85.10;;;;;;1930396;74;21062;-60
2022/06/26 07:11:51;;;;;;;13.80;4.83;;;22.00;84.70;;;;;;1930347;74;21026;-60
2022/06/26 07:14:21;;;;;;;6.80;4.62;;;21.90;84.30;;;;;;1930342;74;21099;-60
2022/06/26 07:16:50;;;;;;;7.08;4.65;;;21.80;84.30;;;;;;1930270;73;21076;-60
2022/06/26 07:19:20;;;;;;;7.70;5.42;;;21.80;84.60;;;;;;1930337;74;21069;-61
2022/06/26 07:21:49;;;;;;;6.78;4.92;;;21.70;84.90;;;;;;1930317;74;21159;-61
2022/06/26 07:24:19;;;;;;;10.43;8.53;;;21.60;85.30;;;;;;1930273;74;21021;-61
2022/06/26 07:26:53;;;;;;;6.97;5.05;;;21.60;85.50;;;;;;1919788;74;21048;-61
2022/06/26 07:29:23;;;;;;;8.80;5.53;;;21.60;85.60;;;;;;1930186;74;21001;-61
2022/06/26 07:31:52;;;;;;;5.25;4.35;;;21.50;85.70;;;;;;1930356;74;21017;-61
2022/06/26 07:34:23;;;;;;;5.78;4.15;;;21.50;85.90;;;;;;1930131;74;21095;-61
2022/06/26 07:36:53;;;;;;;4.08;3.77;;;21.50;85.60;;;;;;1930404;74;21113;-61
2022/06/26 07:39:26;;;;;;;5.33;4.37;;;21.50;85.80;;;;;;1930394;74;21017;-61
2022/06/26 07:41:56;;;;;;;7.17;4.40;;;21.50;85.90;;;;;;1930363;74;21041;-61
2022/06/26 07:44:27;;;;;;;4.60;3.98;;;21.50;85.90;;;;;;1929924;74;21116;-61
2022/06/26 07:46:57;;;;;;;4.90;4.40;;;21.50;86.00;;;;;;1930303;73;21100;-61
2022/06/26 07:49:28;;;;;;;5.55;4.72;;;21.50;86.10;;;;;;1928314;74;21077;-61
2022/06/26 07:51:59;;;;;;;6.15;4.42;;;21.50;86.10;;;;;;1929956;74;21111;-61
2022/06/26 07:54:29;;;;;;;8.50;6.67;;;21.50;86.20;;;;;;1923907;74;21119;-61
2022/06/26 07:56:58;;;;;;;7.28;5.92;;;21.50;86.50;;;;;;1921105;75;21021;-61
2022/06/26 07:59:28;;;;;;;6.05;5.33;;;21.60;86.70;;;;;;1921366;75;20994;-61
2022/06/26 08:01:57;;;;;;;4.53;4.10;;;21.60;86.80;;;;;;1921275;75;21018;-61
2022/06/26 08:04:26;;;;;;;5.28;3.83;;;21.60;86.60;;;;;;1921348;75;21022;-61
2022/06/26 08:06:56;;;;;;;6.05;5.15;;;21.60;86.60;;;;;;1921371;75;21022;-61
2022/06/26 08:09:25;;;;;;;8.38;5.97;;;21.60;86.50;;;;;;1921293;75;21127;-61
2022/06/26 08:11:54;;;;;;;6.20;4.92;;;21.60;86.40;;;;;;1921258;75;21026;-61
2022/06/26 08:14:24;;;;;;;11.43;5.28;;;21.60;86.40;;;;;;1921333;75;21105;-61
2022/06/26 08:16:53;;;;;;;5.12;4.60;;;21.60;86.50;;;;;;1921401;75;21002;-61
2022/06/26 08:19:23;;;;;;;6.78;4.17;;;21.50;86.50;;;;;;1921269;75;21092;-61
2022/06/26 08:22:01;;;;;;;4.28;3.87;;;21.40;86.70;;;;;;1921162;75;21018;-61
2022/06/26 08:24:32;;;;;;;5.90;5.30;;;21.30;87.30;;;;;;1921170;75;21096;-61
2022/06/26 08:27:02;;;;;;;4.30;3.90;;;21.20;87.70;;;;;;1921399;75;21022;-61
2022/06/26 08:29:31;;;;;;;4.90;3.95;;;21.10;88.10;;;;;;1921179;75;21026;-61
2022/06/26 08:32:01;;;;;;;16.10;14.00;;;21.00;88.60;;;;;;1921397;75;21002;-61
2022/06/26 08:34:31;;;;;;;30.62;27.62;;;20.80;88.90;;;;;;1921289;74;21042;-61
2022/06/26 08:37:01;;;;;;;26.37;23.57;;;20.80;89.50;;;;;;1921240;75;21042;-61
2022/06/26 08:39:34;;;;;;;14.07;9.60;;;20.70;90.00;;;;;;1921277;75;21088;-61
2022/06/26 08:42:02;;;;;;;5.30;4.55;;;20.70;90.10;;;;;;1921075;72;21046;-61
2022/06/26 08:44:32;;;;;;;6.83;6.10;;;20.60;90.40;;;;;;1921307;75;21030;-61
2022/06/26 08:47:03;;;;;;;8.20;6.37;;;20.60;90.40;;;;;;1921376;75;21581;-61
2022/06/26 08:49:33;;;;;;;5.25;4.45;;;20.50;90.60;;;;;;1921035;75;21022;-61
2022/06/26 08:52:03;;;;;;;5.83;4.83;;;20.50;90.60;;;;;;1921054;75;21045;-61
2022/06/26 08:54:33;;;;;;;5.70;4.58;;;20.50;90.70;;;;;;1921083;73;21061;-61
2022/06/26 08:57:03;;;;;;;5.87;4.05;;;20.50;90.70;;;;;;1921052;75;21088;-61
2022/06/26 08:59:33;;;;;;;5.47;3.20;;;20.50;90.70;;;;;;1921214;75;21079;-61
2022/06/26 09:02:03;;;;;;;6.37;3.85;;;20.50;90.80;;;;;;1921132;75;21002;-61
2022/06/26 09:04:32;;;;;;;4.28;3.87;;;20.50;90.90;;;;;;1921138;75;21022;-61
2022/06/26 09:07:02;;;;;;;3.42;3.12;;;20.40;90.90;;;;;;1921071;75;21099;-61
2022/06/26 09:09:31;;;;;;;4.70;4.12;;;20.50;91.10;;;;;;1920999;75;21103;-61
2022/06/26 09:12:01;;;;;;;3.77;3.27;;;20.50;91.00;;;;;;1921141;75;21018;-61
2022/06/26 09:14:31;;;;;;;4.10;3.20;;;20.50;91.00;;;;;;1921198;75;21034;-61
2022/06/26 09:17:01;;;;;;;9.33;7.87;;;20.50;91.00;;;;;;1921154;75;21002;-61
2022/06/26 09:19:43;;;;;;;4.28;3.83;;;20.60;91.00;;;;;;1921152;75;21152;-62
2022/06/26 09:22:12;;;;;;;5.30;4.80;;;20.60;90.90;;;;;;1919964;74;21042;-62
2022/06/26 09:24:43;;;;;;;3.72;2.85;;;20.60;91.20;;;;;;1921210;75;21034;-61
2022/06/26 09:27:16;;;;;;;5.47;3.45;;;20.60;91.10;;;;;;1919873;74;21549;-62
2022/06/26 09:29:54;;;;;;;5.78;3.52;;;20.70;91.00;;;;;;1921210;75;21038;-62
2022/06/26 09:32:24;;;;;;;7.83;3.60;;;20.70;91.00;;;;;;1921240;75;21034;-61
2022/06/26 09:34:55;;;;;;;4.25;3.40;;;20.70;91.10;;;;;;1921161;75;21171;-62
2022/06/26 09:37:25;;;;;;;5.58;4.85;;;20.70;91.30;;;;;;1921148;75;21087;-62
2022/06/26 09:40:05;;;;;;;6.40;3.75;;;20.80;90.90;;;;;;1921243;75;21096;-61
2022/06/26 09:42:35;;;;;;;4.12;3.83;;;20.80;90.80;;;;;;1921299;75;21010;-61
2022/06/26 09:45:06;;;;;;;4.17;3.87;;;20.80;90.90;;;;;;1921118;75;21022;-61
2022/06/26 09:47:35;;;;;;;3.60;3.30;;;20.80;90.90;;;;;;1921227;73;21551;-61
2022/06/26 09:50:07;;;;;;;5.22;3.55;;;20.90;91.00;;;;;;1921225;75;21050;-61
2022/06/26 09:52:36;;;;;;;5.40;3.87;;;20.90;91.00;;;;;;1921257;75;21070;-61
2022/06/26 09:55:07;;;;;;;6.15;3.72;;;20.90;90.90;;;;;;1925313;74;21201;-61
2022/06/26 09:57:37;;;;;;;3.85;3.45;;;20.90;90.80;;;;;;1930957;74;21026;-61
2022/06/26 10:00:09;;;;;;;4.70;3.87;;;21.00;90.80;;;;;;1930736;74;21108;-61
2022/06/26 10:08:26;;;;;;;5.30;4.72;;;21.20;90.70;;;;;;1930737;74;21158;-61
2022/06/26 10:11:05;;;;;;;5.55;4.05;;;21.20;90.50;;;;;;1886722;72;21183;-61
2022/06/26 10:13:36;;;;;;;4.70;3.70;;;21.30;90.50;;;;;;1886407;76;21038;-61
2022/06/26 10:16:28;;;;;;;6.50;5.75;;;21.30;90.40;;;;;;1886515;76;21532;-61
2022/06/26 10:19:26;;;;;;;5.53;4.00;;;21.30;90.40;;;;;;1886448;76;21050;-61
2022/06/26 10:21:56;;;;;;;4.40;4.00;;;21.30;90.30;;;;;;1886395;76;21109;-60
2022/06/26 10:24:26;;;;;;;4.90;4.40;;;21.40;90.30;;;;;;1886469;75;21049;-61
2022/06/26 10:27:00;;;;;;;6.72;3.70;;;21.40;90.30;;;;;;1886525;76;21147;-61
2022/06/26 10:29:40;;;;;;;4.12;3.72;;;21.40;90.20;;;;;;1886503;76;21018;-61
2022/06/26 10:32:10;;;;;;;3.70;3.40;;;21.40;90.10;;;;;;1886509;76;21030;-61
2022/06/26 10:34:40;;;;;;;7.92;3.77;;;21.40;90.10;;;;;;1886516;76;21046;-61
2022/06/26 10:37:13;;;;;;;4.83;4.33;;;21.50;90.10;;;;;;1886483;76;21439;-61
2022/06/26 10:39:49;;;;;;;5.55;3.75;;;21.50;90.00;;;;;;1886427;76;20999;-61
2022/06/26 10:45:22;;;;;;;3.92;3.52;;;21.50;89.90;;;;;;1886730;76;21099;-61
2022/06/26 10:47:56;;;;;;;4.00;3.17;;;21.40;89.40;;;;;;1886483;76;21084;-61
2022/06/26 10:50:30;;;;;;;3.65;3.15;;;21.40;89.30;;;;;;1886622;76;21081;-61
2022/06/26 10:53:24;;;;;;;4.25;3.20;;;21.40;89.40;;;;;;1886483;76;21111;-61
2022/06/26 10:56:01;;;;;;;5.72;3.67;;;21.40;89.50;;;;;;1886414;76;21030;-61
2022/06/26 10:58:38;;;;;;;4.33;4.00;;;21.40;89.40;;;;;;1886361;76;21026;-61
2022/06/26 11:01:11;;;;;;;5.60;4.03;;;21.40;89.50;;;;;;1885168;75;21522;-61
2022/06/26 11:03:42;;;;;;;4.72;3.92;;;21.40;89.40;;;;;;1886616;76;21026;-61
2022/06/26 11:06:14;;;;;;;3.85;3.45;;;21.40;89.30;;;;;;1886384;76;21026;-61
2022/06/26 11:08:51;;;;;;;3.95;3.52;;;21.30;89.10;;;;;;1886505;75;21092;-61
2022/06/26 11:11:25;;;;;;;4.67;3.70;;;21.30;89.40;;;;;;1886307;74;21058;-61
2022/06/26 11:14:01;;;;;;;5.30;3.45;;;21.30;89.40;;;;;;1886626;76;21026;-61
2022/06/26 11:16:39;;;;;;;5.50;4.67;;;21.20;89.30;;;;;;1886413;76;21030;-61
2022/06/26 11:19:10;;;;;;;7.75;4.75;;;21.20;89.60;;;;;;1886396;76;21026;-61
2022/06/26 11:21:39;;;;;;;4.53;4.12;;;21.10;89.70;;;;;;1885670;75;21594;-61
2022/06/26 11:24:09;;;;;;;5.47;4.08;;;21.10;90.20;;;;;;1886588;76;21034;-61
2022/06/26 11:26:38;;;;;;;4.75;4.15;;;21.20;90.00;;;;;;1886580;76;21030;-61
2022/06/26 11:29:08;;;;;;;4.67;4.28;;;21.10;90.00;;;;;;1886538;75;21108;-61
2022/06/26 11:31:38;;;;;;;5.30;4.35;;;21.10;90.00;;;;;;1886567;75;21111;-61
2022/06/26 11:34:15;;;;;;;4.78;4.37;;;21.10;90.00;;;;;;1886638;75;21034;-61
2022/06/26 11:36:55;;;;;;;7.47;4.40;;;21.10;90.00;;;;;;1886734;76;21030;-61
2022/06/26 11:39:25;;;;;;;5.22;4.72;;;21.10;90.00;;;;;;1886612;76;20998;-61
2022/06/26 11:41:54;;;;;;;5.33;4.83;;;21.10;90.00;;;;;;1886596;76;21103;-61
2022/06/26 11:44:23;;;;;;;5.03;4.62;;;21.10;90.10;;;;;;1886543;75;21104;-61
2022/06/26 11:46:53;;;;;;;6.85;6.15;;;21.10;90.10;;;;;;1886498;76;21099;-61
2022/06/26 11:49:25;;;;;;;7.20;5.45;;;21.10;90.10;;;;;;1886488;75;21111;-61
2022/06/26 11:51:58;;;;;;;6.08;5.47;;;21.10;90.20;;;;;;1886655;76;21018;-61
2022/06/26 11:54:28;;;;;;;9.58;5.75;;;21.20;90.20;;;;;;1886514;76;21095;-61
2022/06/26 11:56:57;;;;;;;5.22;4.65;;;21.20;90.20;;;;;;1886595;76;21473;-61
2022/06/26 11:59:26;;;;;;;6.25;5.60;;;21.20;90.20;;;;;;1886747;76;21042;-61
2022/06/26 12:01:56;;;;;;;6.35;5.28;;;21.30;90.20;;;;;;1886750;76;21096;-61
2022/06/26 12:04:25;;;;;;;6.55;5.42;;;21.30;90.20;;;;;;1886651;76;21018;-61
2022/06/26 12:06:55;;;;;;;5.12;4.62;;;21.40;90.20;;;;;;1886617;76;21006;-61
2022/06/26 12:09:28;;;;;;;5.37;4.87;;;21.40;90.10;;;;;;1886705;76;21080;-61
2022/06/26 12:11:57;;;;;;;8.03;4.55;;;21.40;90.20;;;;;;1886585;76;21062;-61
2022/06/26 12:14:28;;;;;;;4.70;4.22;;;21.40;90.50;;;;;;1886633;76;21041;-61
2022/06/26 12:16:59;;;;;;;11.10;4.67;;;21.40;90.50;;;;;;1886636;76;21088;-61
2022/06/26 12:19:31;;;;;;;5.37;3.70;;;21.20;91.10;;;;;;1886661;76;21586;-61
2022/06/26 12:22:00;;;;;;;10.45;4.95;;;21.00;91.30;;;;;;1885442;73;20998;-61
2022/06/26 12:24:30;;;;;;;6.37;4.75;;;20.70;91.50;;;;;;1886588;76;21022;-61
2022/06/26 12:26:59;;;;;;;8.23;4.35;;;20.50;92.00;;;;;;1886710;76;21002;-61
2022/06/26 12:29:29;;;;;;;7.30;5.65;;;20.40;92.10;;;;;;1886522;75;21058;-61
2022/06/26 12:31:58;;;;;;;6.15;4.33;;;20.30;92.20;;;;;;1886559;75;21034;-61
2022/06/26 12:34:28;;;;;;;4.72;4.33;;;20.40;92.10;;;;;;1886663;76;21015;-61
2022/06/26 12:36:57;;;;;;;4.22;3.83;;;20.30;92.10;;;;;;1886636;76;21101;-61
2022/06/26 12:39:27;;;;;;;4.58;4.17;;;20.30;92.00;;;;;;1886711;76;21027;-61
2022/06/26 12:41:57;;;;;;;4.75;4.25;;;20.30;91.90;;;;;;1886636;76;21077;-61
2022/06/26 12:44:27;;;;;;;18.17;14.33;;;20.30;92.00;;;;;;1886585;76;21127;-61
2022/06/26 12:46:56;;;;;;;9.03;3.67;;;20.20;92.00;;;;;;1886628;76;21058;-61
2022/06/26 12:52:20;;;;;;;5.03;4.08;;;20.20;92.20;;;;;;1925666;73;21544;-61
2022/06/26 12:54:49;;;;;;;5.28;4.78;;;20.10;92.50;;;;;;1924640;74;21028;-60
2022/06/26 12:57:19;;;;;;;6.97;5.50;;;20.20;92.50;;;;;;1924716;74;21152;-61
2022/06/26 12:59:48;;;;;;;5.80;4.72;;;20.10;92.50;;;;;;1924654;74;20997;-60
2022/06/26 13:02:18;;;;;;;7.12;5.50;;;20.10;92.60;;;;;;1924729;74;21047;-61
2022/06/26 13:04:48;;;;;;;7.30;5.50;;;20.20;92.60;;;;;;1924614;74;21044;-61
2022/06/26 13:07:17;;;;;;;6.20;5.60;;;20.20;92.90;;;;;;1924613;74;20996;-60
2022/06/26 13:09:47;;;;;;;4.78;4.22;;;20.20;92.80;;;;;;1924588;73;21044;-61
2022/06/26 13:12:16;;;;;;;9.23;6.22;;;20.20;92.80;;;;;;1924645;73;21073;-61
2022/06/26 13:14:46;;;;;;;5.90;5.30;;;20.10;92.80;;;;;;1924692;73;21446;-61
2022/06/26 13:17:15;;;;;;;6.03;5.42;;;20.10;92.90;;;;;;1924651;74;21055;-61
2022/06/26 13:19:44;;;;;;;6.40;5.22;;;20.10;93.00;;;;;;1924575;74;21156;-61